sensor_id;sensor_type;location;lat;lon;timestamp;pressure;altitude;pressure_sealevel;temperature;humidity
29379;BME280;16362;47.202;15.258;2022-09-20T00:01:12;96325.28;;;5.50;100.00
29379;BME280;16362;47.202;15.258;2022-09-20T00:03:43;96326.97;;;5.51;100.00
29379;BME280;16362;47.202;15.258;2022-09-20T00:06:13;96328.09;;;5.49;100.00
29379;BME280;16362;47.202;15.258;2022-09-20T00:08:40;96336.16;;;5.47;100.00
29379;BME280;16362;47.202;15.258;2022-09-20T00:11:13;96334.50;;;5.46;100.00
29379;BME280;16362;47.202;15.258;2022-09-20T00:13:42;96333.53;;;5.47;100.00
29379;BME280;16362;47.202;15.258;2022-09-20T00:16:17;96334.19;;;5.49;100.00
29379;BME280;16362;47.202;15.258;2022-09-20T00:18:48;96330.47;;;5.42;100.00
29379;BME280;16362;47.202;15.258;2022-09-20T00:21:16;96330.75;;;5.39;100.00
29379;BME280;16362;47.202;15.258;2022-09-20T00:23:44;96323.91;;;5.36;100.00
29379;BME280;16362;47.202;15.258;2022-09-20T00:26:11;96326.00;;;5.33;100.00
29379;BME280;16362;47.202;15.258;2022-09-20T00:28:40;96321.41;;;5.35;100.00
29379;BME280;16362;47.202;15.258;2022-09-20T00:31:07;96316.94;;;5.35;100.00
29379;BME280;16362;47.202;15.258;2022-09-20T00:33:33;96321.00;;;5.30;100.00
29379;BME280;16362;47.202;15.258;2022-09-20T00:36:19;96313.91;;;5.20;100.00
29379;BME280;16362;47.202;15.258;2022-09-20T00:38:46;96308.59;;;5.20;100.00
29379;BME280;16362;47.202;15.258;2022-09-20T00:41:13;96313.63;;;5.14;100.00
29379;BME280;16362;47.202;15.258;2022-09-20T00:43:43;96312.66;;;5.05;100.00
29379;BME280;16362;47.202;15.258;2022-09-20T00:46:26;96318.63;;;4.97;100.00
29379;BME280;16362;47.202;15.258;2022-09-20T00:48:58;96322.09;;;4.98;100.00
29379;BME280;16362;47.202;15.258;2022-09-20T00:51:28;96309.16;;;4.95;100.00
29379;BME280;16362;47.202;15.258;2022-09-20T00:54:00;96312.38;;;4.88;100.00
29379;BME280;16362;47.202;15.258;2022-09-20T00:56:32;96319.72;;;4.75;100.00
29379;BME280;16362;47.202;15.258;2022-09-20T00:59:22;96315.25;;;4.76;100.00
29379;BME280;16362;47.202;15.258;2022-09-20T01:02:03;96315.41;;;4.74;100.00
29379;BME280;16362;47.202;15.258;2022-09-20T01:04:32;96309.00;;;4.67;100.00
29379;BME280;16362;47.202;15.258;2022-09-20T01:07:02;96315.56;;;4.72;100.00
29379;BME280;16362;47.202;15.258;2022-09-20T01:09:30;96308.72;;;4.80;100.00
29379;BME280;16362;47.202;15.258;2022-09-20T01:11:57;96311.38;;;4.70;100.00
29379;BME280;16362;47.202;15.258;2022-09-20T01:14:27;96306.75;;;4.72;100.00
29379;BME280;16362;47.202;15.258;2022-09-20T01:16:55;96310.41;;;4.71;100.00
29379;BME280;16362;47.202;15.258;2022-09-20T01:19:27;96297.88;;;4.73;100.00
29379;BME280;16362;47.202;15.258;2022-09-20T01:21:58;96301.75;;;4.79;100.00
29379;BME280;16362;47.202;15.258;2022-09-20T01:24:37;96304.56;;;4.77;100.00
29379;BME280;16362;47.202;15.258;2022-09-20T01:27:22;96313.19;;;4.79;100.00
29379;BME280;16362;47.202;15.258;2022-09-20T01:35:19;96309.44;;;4.92;100.00
29379;BME280;16362;47.202;15.258;2022-09-20T01:38:38;96309.44;;;4.92;100.00
29379;BME280;16362;47.202;15.258;2022-09-20T01:41:16;96313.78;;;4.93;100.00
29379;BME280;16362;47.202;15.258;2022-09-20T01:43:57;96318.34;;;4.91;100.00
29379;BME280;16362;47.202;15.258;2022-09-20T01:46:32;96315.13;;;4.87;100.00
29379;BME280;16362;47.202;15.258;2022-09-20T02:00:12;96296.63;;;4.77;100.00
29379;BME280;16362;47.202;15.258;2022-09-20T02:07:55;96299.84;;;4.71;100.00
29379;BME280;16362;47.202;15.258;2022-09-20T02:11:03;96286.19;;;4.76;100.00
29379;BME280;16362;47.202;15.258;2022-09-20T02:22:14;96284.94;;;4.60;100.00
29379;BME280;16362;47.202;15.258;2022-09-20T02:39:42;96281.44;;;4.60;100.00
29379;BME280;16362;47.202;15.258;2022-09-20T02:47:41;96277.69;;;4.62;100.00
29379;BME280;16362;47.202;15.258;2022-09-20T03:06:52;96286.19;;;4.66;100.00
29379;BME280;16362;47.202;15.258;2022-09-20T03:14:46;96282.97;;;4.72;100.00
29379;BME280;16362;47.202;15.258;2022-09-20T03:40:27;96277.28;;;4.77;100.00
29379;BME280;16362;47.202;15.258;2022-09-20T03:43:05;96274.78;;;4.75;100.00
29379;BME280;16362;47.202;15.258;2022-09-20T03:48:29;96284.38;;;4.76;100.00
29379;BME280;16362;47.202;15.258;2022-09-20T04:04:26;96282.72;;;4.85;100.00
29379;BME280;16362;47.202;15.258;2022-09-20T04:07:09;96286.47;;;4.82;100.00
29379;BME280;16362;47.202;15.258;2022-09-20T04:15:36;96288.84;;;4.85;100.00
29379;BME280;16362;47.202;15.258;2022-09-20T04:24:59;96297.34;;;4.79;100.00
29379;BME280;16362;47.202;15.258;2022-09-20T04:28:12;96305.50;;;4.76;100.00
29379;BME280;16362;47.202;15.258;2022-09-20T04:30:42;96304.13;;;4.72;100.00
29379;BME280;16362;47.202;15.258;2022-09-20T04:33:24;96306.22;;;4.68;100.00
29379;BME280;16362;47.202;15.258;2022-09-20T04:36:13;96305.66;;;4.65;100.00
29379;BME280;16362;47.202;15.258;2022-09-20T04:38:57;96303.00;;;4.55;100.00
29379;BME280;16362;47.202;15.258;2022-09-20T05:03:44;96322.88;;;4.49;100.00
29379;BME280;16362;47.202;15.258;2022-09-20T05:09:25;96331.03;;;4.36;100.00
29379;BME280;16362;47.202;15.258;2022-09-20T05:12:24;96325.41;;;4.20;100.00
29379;BME280;16362;47.202;15.258;2022-09-20T05:15:22;96336.03;;;4.30;100.00
29379;BME280;16362;47.202;15.258;2022-09-20T05:26:09;96335.59;;;4.75;100.00
29379;BME280;16362;47.202;15.258;2022-09-20T05:31:11;96335.31;;;4.88;100.00
29379;BME280;16362;47.202;15.258;2022-09-20T05:41:57;96348.16;;;5.12;100.00
29379;BME280;16362;47.202;15.258;2022-09-20T05:47:19;96360.00;;;5.18;100.00
29379;BME280;16362;47.202;15.258;2022-09-20T05:58:06;96364.59;;;5.26;100.00
29379;BME280;16362;47.202;15.258;2022-09-20T06:00:49;96370.44;;;5.29;100.00
29379;BME280;16362;47.202;15.258;2022-09-20T06:19:32;96372.38;;;5.27;100.00
29379;BME280;16362;47.202;15.258;2022-09-20T06:22:15;96372.00;;;5.32;100.00
29379;BME280;16362;47.202;15.258;2022-09-20T06:24:50;96364.03;;;5.42;100.00
29379;BME280;16362;47.202;15.258;2022-09-20T06:27:27;96364.31;;;5.58;100.00
29379;BME280;16362;47.202;15.258;2022-09-20T06:29:59;96355.06;;;6.01;100.00
29379;BME280;16362;47.202;15.258;2022-09-20T06:32:27;96356.28;;;6.45;100.00
29379;BME280;16362;47.202;15.258;2022-09-20T06:34:53;96358.38;;;6.51;100.00
29379;BME280;16362;47.202;15.258;2022-09-20T06:37:43;96373.53;;;6.58;100.00
29379;BME280;16362;47.202;15.258;2022-09-20T06:43:46;96377.13;;;6.67;100.00
29379;BME280;16362;47.202;15.258;2022-09-20T06:46:13;96385.91;;;6.68;100.00
29379;BME280;16362;47.202;15.258;2022-09-20T06:48:41;96393.56;;;6.71;100.00
29379;BME280;16362;47.202;15.258;2022-09-20T06:51:08;96398.75;;;6.72;100.00
29379;BME280;16362;47.202;15.258;2022-09-20T06:53:38;96397.88;;;6.72;100.00
29379;BME280;16362;47.202;15.258;2022-09-20T06:56:14;96401.63;;;6.79;100.00
29379;BME280;16362;47.202;15.258;2022-09-20T06:58:42;96391.16;;;6.78;100.00
29379;BME280;16362;47.202;15.258;2022-09-20T07:01:08;96385.13;;;6.85;100.00
29379;BME280;16362;47.202;15.258;2022-09-20T07:03:35;96385.22;;;6.94;100.00
29379;BME280;16362;47.202;15.258;2022-09-20T07:06:03;96369.84;;;7.15;100.00
29379;BME280;16362;47.202;15.258;2022-09-20T07:08:30;96374.47;;;7.49;100.00
29379;BME280;16362;47.202;15.258;2022-09-20T07:11:14;96375.09;;;8.05;100.00
29379;BME280;16362;47.202;15.258;2022-09-20T07:13:43;96363.72;;;8.82;100.00
29379;BME280;16362;47.202;15.258;2022-09-20T07:16:13;96368.16;;;9.24;100.00
29379;BME280;16362;47.202;15.258;2022-09-20T07:18:41;96361.84;;;9.83;100.00
29379;BME280;16362;47.202;15.258;2022-09-20T07:21:10;96370.81;;;10.15;99.83
29379;BME280;16362;47.202;15.258;2022-09-20T07:23:38;96360.94;;;10.40;100.00
29379;BME280;16362;47.202;15.258;2022-09-20T07:26:05;96351.75;;;10.59;100.00
29379;BME280;16362;47.202;15.258;2022-09-20T07:28:34;96360.03;;;10.65;100.00
29379;BME280;16362;47.202;15.258;2022-09-20T07:31:00;96356.63;;;10.87;97.57
29379;BME280;16362;47.202;15.258;2022-09-20T07:33:27;96360.38;;;11.01;97.88
29379;BME280;16362;47.202;15.258;2022-09-20T07:35:54;96365.03;;;11.07;90.62
29379;BME280;16362;47.202;15.258;2022-09-20T07:38:21;96365.84;;;11.08;91.88
29379;BME280;16362;47.202;15.258;2022-09-20T07:40:59;96368.75;;;10.98;86.94
29379;BME280;16362;47.202;15.258;2022-09-20T07:43:28;96371.09;;;10.93;84.82
29379;BME280;16362;47.202;15.258;2022-09-20T07:45:56;96374.75;;;11.00;89.82
29379;BME280;16362;47.202;15.258;2022-09-20T07:48:28;96384.16;;;11.19;90.32
29379;BME280;16362;47.202;15.258;2022-09-20T07:50:58;96378.72;;;11.36;87.54
29379;BME280;16362;47.202;15.258;2022-09-20T07:53:33;96382.53;;;11.41;86.32
29379;BME280;16362;47.202;15.258;2022-09-20T07:56:01;96383.34;;;11.42;82.17
29379;BME280;16362;47.202;15.258;2022-09-20T07:58:30;96383.25;;;11.35;84.05
29379;BME280;16362;47.202;15.258;2022-09-20T08:00:59;96386.69;;;11.44;83.17
29379;BME280;16362;47.202;15.258;2022-09-20T08:03:28;96395.56;;;11.36;83.69
29379;BME280;16362;47.202;15.258;2022-09-20T08:06:03;96388.19;;;11.15;86.30
29379;BME280;16362;47.202;15.258;2022-09-20T08:08:31;96385.41;;;11.08;86.47
29379;BME280;16362;47.202;15.258;2022-09-20T08:11:02;96381.19;;;11.14;91.49
29379;BME280;16362;47.202;15.258;2022-09-20T08:13:37;96376.19;;;11.11;88.68
29379;BME280;16362;47.202;15.258;2022-09-20T08:16:25;96372.38;;;11.05;87.29
29379;BME280;16362;47.202;15.258;2022-09-20T08:18:55;96368.47;;;11.16;88.34
29379;BME280;16362;47.202;15.258;2022-09-20T08:21:24;96377.28;;;11.25;88.29
29379;BME280;16362;47.202;15.258;2022-09-20T08:23:52;96373.53;;;11.11;83.80
29379;BME280;16362;47.202;15.258;2022-09-20T08:26:20;96382.91;;;11.07;82.54
29379;BME280;16362;47.202;15.258;2022-09-20T08:28:54;96375.13;;;11.20;85.88
29379;BME280;16362;47.202;15.258;2022-09-20T08:31:23;96376.66;;;11.46;84.52
29379;BME280;16362;47.202;15.258;2022-09-20T08:33:51;96378.56;;;11.60;78.90
29379;BME280;16362;47.202;15.258;2022-09-20T08:36:23;96372.94;;;11.78;80.06
29379;BME280;16362;47.202;15.258;2022-09-20T08:38:51;96380.88;;;12.10;77.88
29379;BME280;16362;47.202;15.258;2022-09-20T08:41:45;96367.34;;;12.41;76.78
29379;BME280;16362;47.202;15.258;2022-09-20T08:46:47;96374.53;;;13.01;74.74
29379;BME280;16362;47.202;15.258;2022-09-20T08:49:24;96371.22;;;12.84;70.98
29379;BME280;16362;47.202;15.258;2022-09-20T08:51:52;96380.53;;;12.58;74.62
29379;BME280;16362;47.202;15.258;2022-09-20T08:54:20;96388.38;;;12.29;74.18
29379;BME280;16362;47.202;15.258;2022-09-20T08:56:49;96384.56;;;12.09;73.44
29379;BME280;16362;47.202;15.258;2022-09-20T08:59:19;96375.59;;;12.02;75.52
29379;BME280;16362;47.202;15.258;2022-09-20T09:01:48;96389.72;;;11.87;73.19
29379;BME280;16362;47.202;15.258;2022-09-20T09:04:23;96384.44;;;11.79;75.43
29379;BME280;16362;47.202;15.258;2022-09-20T09:06:51;96386.09;;;11.80;76.12
29379;BME280;16362;47.202;15.258;2022-09-20T09:09:19;96379.84;;;11.88;76.53
29379;BME280;16362;47.202;15.258;2022-09-20T09:11:46;96384.66;;;11.92;74.47
29379;BME280;16362;47.202;15.258;2022-09-20T09:14:28;96380.13;;;11.93;73.07
29379;BME280;16362;47.202;15.258;2022-09-20T09:17:19;96384.66;;;11.92;75.46
29379;BME280;16362;47.202;15.258;2022-09-20T09:19:47;96382.31;;;11.98;76.47
29379;BME280;16362;47.202;15.258;2022-09-20T09:22:44;96376.13;;;11.97;75.09
29379;BME280;16362;47.202;15.258;2022-09-20T09:33:28;96369.63;;;11.91;75.16
29379;BME280;16362;47.202;15.258;2022-09-20T09:36:16;96374.38;;;11.81;76.95
29379;BME280;16362;47.202;15.258;2022-09-20T09:38:46;96367.56;;;11.78;75.36
29379;BME280;16362;47.202;15.258;2022-09-20T09:43:56;96337.88;;;11.73;75.72
29379;BME280;16362;47.202;15.258;2022-09-20T09:46:25;96339.13;;;11.62;75.26
29379;BME280;16362;47.202;15.258;2022-09-20T09:52:13;96324.91;;;12.53;76.84
29379;BME280;16362;47.202;15.258;2022-09-20T09:54:48;96313.16;;;12.84;67.85
29379;BME280;16362;47.202;15.258;2022-09-20T10:05:02;96311.31;;;13.86;69.40
29379;BME280;16362;47.202;15.258;2022-09-20T10:07:43;96321.97;;;13.36;64.95
29379;BME280;16362;47.202;15.258;2022-09-20T10:10:32;96327.47;;;13.13;70.08
29379;BME280;16362;47.202;15.258;2022-09-20T10:15:48;96326.06;;;13.54;68.30
29379;BME280;16362;47.202;15.258;2022-09-20T10:32:09;96315.94;;;12.76;69.84
29379;BME280;16362;47.202;15.258;2022-09-20T10:37:49;96315.66;;;12.71;67.03
29379;BME280;16362;47.202;15.258;2022-09-20T11:06:40;96351.28;;;12.86;70.58
29379;BME280;16362;47.202;15.258;2022-09-20T11:09:13;96352.75;;;12.74;70.55
29379;BME280;16362;47.202;15.258;2022-09-20T11:11:45;96351.47;;;12.70;68.19
29379;BME280;16362;47.202;15.258;2022-09-20T11:14:30;96350.81;;;12.68;70.78
29379;BME280;16362;47.202;15.258;2022-09-20T11:17:05;96351.75;;;12.75;67.26
29379;BME280;16362;47.202;15.258;2022-09-20T11:19:56;96347.88;;;12.62;69.80
29379;BME280;16362;47.202;15.258;2022-09-20T11:22:45;96339.38;;;12.59;68.26
29379;BME280;16362;47.202;15.258;2022-09-20T11:25:20;96351.09;;;12.58;69.34
29379;BME280;16362;47.202;15.258;2022-09-20T11:28:02;96344.38;;;12.47;67.74
29379;BME280;16362;47.202;15.258;2022-09-20T11:30:38;96350.38;;;12.34;64.93
29379;BME280;16362;47.202;15.258;2022-09-20T11:33:22;96358.50;;;12.26;66.07
29379;BME280;16362;47.202;15.258;2022-09-20T11:35:53;96355.63;;;12.27;64.23
29379;BME280;16362;47.202;15.258;2022-09-20T11:41:03;96359.78;;;12.30;64.75
29379;BME280;16362;47.202;15.258;2022-09-20T11:43:34;96354.16;;;12.40;66.01
29379;BME280;16362;47.202;15.258;2022-09-20T11:46:06;96350.47;;;12.41;68.25
29379;BME280;16362;47.202;15.258;2022-09-20T11:48:46;96358.41;;;12.34;67.13
29379;BME280;16362;47.202;15.258;2022-09-20T11:56:58;96378.47;;;11.92;72.45
29379;BME280;16362;47.202;15.258;2022-09-20T11:59:53;96382.28;;;11.74;76.15
29379;BME280;16362;47.202;15.258;2022-09-20T12:02:55;96377.91;;;11.58;78.97
29379;BME280;16362;47.202;15.258;2022-09-20T12:05:33;96378.97;;;11.49;77.31
29379;BME280;16362;47.202;15.258;2022-09-20T12:08:27;96378.66;;;11.44;80.78
29379;BME280;16362;47.202;15.258;2022-09-20T12:11:00;96368.97;;;11.43;78.28
29379;BME280;16362;47.202;15.258;2022-09-20T12:13:31;96362.34;;;11.39;79.10
29379;BME280;16362;47.202;15.258;2022-09-20T12:16:06;96359.66;;;11.39;81.45
29379;BME280;16362;47.202;15.258;2022-09-20T12:21:09;96362.03;;;11.34;76.98
29379;BME280;16362;47.202;15.258;2022-09-20T12:23:47;96350.63;;;11.40;82.66
29379;BME280;16362;47.202;15.258;2022-09-20T12:28:54;96353.81;;;11.43;78.61
29379;BME280;16362;47.202;15.258;2022-09-20T12:37:25;96348.91;;;11.70;75.79
29379;BME280;16362;47.202;15.258;2022-09-20T12:39:37;96337.59;;;11.83;74.32
29379;BME280;16362;47.202;15.258;2022-09-20T12:44:59;96349.22;;;12.13;71.23
29379;BME280;16362;47.202;15.258;2022-09-20T12:47:28;96347.59;;;12.42;73.35
29379;BME280;16362;47.202;15.258;2022-09-20T12:49:57;96327.09;;;12.64;71.66
29379;BME280;16362;47.202;15.258;2022-09-20T12:58:00;96337.81;;;12.35;68.48
29379;BME280;16362;47.202;15.258;2022-09-20T13:00:47;96334.84;;;12.15;67.25
29379;BME280;16362;47.202;15.258;2022-09-20T13:05:44;96339.56;;;12.27;70.49
29379;BME280;16362;47.202;15.258;2022-09-20T13:08:12;96334.41;;;12.41;70.95
29379;BME280;16362;47.202;15.258;2022-09-20T13:10:51;96321.91;;;12.78;69.98
29379;BME280;16362;47.202;15.258;2022-09-20T13:16:37;96309.63;;;12.84;66.92
29379;BME280;16362;47.202;15.258;2022-09-20T13:19:14;96301.69;;;12.75;68.20
29379;BME280;16362;47.202;15.258;2022-09-20T13:24:17;96291.41;;;12.42;63.24
29379;BME280;16362;47.202;15.258;2022-09-20T13:26:46;96285.50;;;12.32;62.65
29379;BME280;16362;47.202;15.258;2022-09-20T13:29:43;96289.06;;;12.24;63.35
29379;BME280;16362;47.202;15.258;2022-09-20T13:32:26;96292.97;;;12.22;70.09
29379;BME280;16362;47.202;15.258;2022-09-20T13:42:51;96289.59;;;11.90;72.72
29379;BME280;16362;47.202;15.258;2022-09-20T13:45:41;96287.63;;;11.84;74.37
29379;BME280;16362;47.202;15.258;2022-09-20T13:48:08;96285.50;;;11.79;76.38
29379;BME280;16362;47.202;15.258;2022-09-20T13:50:35;96293.44;;;11.72;79.12
29379;BME280;16362;47.202;15.258;2022-09-20T13:53:16;96278.47;;;11.63;80.59
29379;BME280;16362;47.202;15.258;2022-09-20T13:56:09;96286.66;;;11.61;81.13
29379;BME280;16362;47.202;15.258;2022-09-20T13:58:37;96287.75;;;11.52;81.68
29379;BME280;16362;47.202;15.258;2022-09-20T14:01:05;96284.25;;;11.52;80.52
29379;BME280;16362;47.202;15.258;2022-09-20T14:03:43;96285.16;;;11.44;81.52
29379;BME280;16362;47.202;15.258;2022-09-20T14:06:12;96281.09;;;11.48;77.68
29379;BME280;16362;47.202;15.258;2022-09-20T14:08:44;96280.09;;;11.49;76.92
29379;BME280;16362;47.202;15.258;2022-09-20T14:11:17;96289.06;;;11.56;81.19
29379;BME280;16362;47.202;15.258;2022-09-20T14:13:53;96295.44;;;11.70;79.43
29379;BME280;16362;47.202;15.258;2022-09-20T14:16:23;96297.28;;;11.70;74.11
29379;BME280;16362;47.202;15.258;2022-09-20T14:18:53;96292.72;;;11.78;65.50
29379;BME280;16362;47.202;15.258;2022-09-20T14:21:23;96295.53;;;12.00;67.73
29379;BME280;16362;47.202;15.258;2022-09-20T14:23:56;96298.47;;;12.05;65.91
29379;BME280;16362;47.202;15.258;2022-09-20T14:26:29;96289.94;;;12.10;63.97
29379;BME280;16362;47.202;15.258;2022-09-20T14:32:04;96289.84;;;12.18;71.12
29379;BME280;16362;47.202;15.258;2022-09-20T14:34:35;96300.81;;;12.08;68.42
29379;BME280;16362;47.202;15.258;2022-09-20T14:37:13;96300.34;;;12.05;71.76
29379;BME280;16362;47.202;15.258;2022-09-20T14:39:48;96298.38;;;11.99;75.24
29379;BME280;16362;47.202;15.258;2022-09-20T14:42:34;96305.25;;;11.93;74.55
29379;BME280;16362;47.202;15.258;2022-09-20T14:45:04;96302.97;;;11.90;74.04
29379;BME280;16362;47.202;15.258;2022-09-20T14:47:37;96290.78;;;11.87;70.33
29379;BME280;16362;47.202;15.258;2022-09-20T14:50:23;96301.00;;;11.84;70.53
29379;BME280;16362;47.202;15.258;2022-09-20T14:55:32;96307.53;;;11.81;75.17
29379;BME280;16362;47.202;15.258;2022-09-20T14:58:11;96307.09;;;11.77;76.17
29379;BME280;16362;47.202;15.258;2022-09-20T15:01:13;96313.63;;;11.75;73.86
29379;BME280;16362;47.202;15.258;2022-09-20T15:03:44;96320.63;;;11.76;72.57
29379;BME280;16362;47.202;15.258;2022-09-20T15:06:12;96331.66;;;11.73;74.00
29379;BME280;16362;47.202;15.258;2022-09-20T15:08:39;96345.59;;;11.68;72.41
29379;BME280;16362;47.202;15.258;2022-09-20T15:11:14;96333.97;;;11.61;71.75
29379;BME280;16362;47.202;15.258;2022-09-20T15:13:41;96339.75;;;11.65;74.71
29379;BME280;16362;47.202;15.258;2022-09-20T15:16:11;96337.75;;;11.67;75.50
29379;BME280;16362;47.202;15.258;2022-09-20T15:18:42;96343.91;;;11.67;73.81
29379;BME280;16362;47.202;15.258;2022-09-20T15:21:09;96350.44;;;11.65;75.78
29379;BME280;16362;47.202;15.258;2022-09-20T15:23:37;96350.44;;;11.65;76.43
29379;BME280;16362;47.202;15.258;2022-09-20T15:26:05;96357.91;;;11.54;80.54
29379;BME280;16362;47.202;15.258;2022-09-20T15:28:32;96353.69;;;11.37;75.85
29379;BME280;16362;47.202;15.258;2022-09-20T15:30:59;96360.91;;;11.28;78.02
29379;BME280;16362;47.202;15.258;2022-09-20T15:33:29;96356.91;;;11.24;80.58
29379;BME280;16362;47.202;15.258;2022-09-20T15:35:56;96364.22;;;11.07;76.70
29379;BME280;16362;47.202;15.258;2022-09-20T15:38:23;96362.91;;;11.03;78.37
29379;BME280;16362;47.202;15.258;2022-09-20T15:40:52;96368.91;;;10.97;81.49
29379;BME280;16362;47.202;15.258;2022-09-20T15:43:21;96365.56;;;10.94;83.62
29379;BME280;16362;47.202;15.258;2022-09-20T15:45:54;96368.09;;;10.88;81.94
29379;BME280;16362;47.202;15.258;2022-09-20T15:48:25;96369.31;;;10.77;79.58
29379;BME280;16362;47.202;15.258;2022-09-20T15:51:06;96377.69;;;10.74;83.12
29379;BME280;16362;47.202;15.258;2022-09-20T15:53:35;96377.88;;;10.72;85.97
29379;BME280;16362;47.202;15.258;2022-09-20T15:56:12;96379.03;;;10.70;88.26
29379;BME280;16362;47.202;15.258;2022-09-20T15:58:47;96384.59;;;10.60;88.01
29379;BME280;16362;47.202;15.258;2022-09-20T16:01:14;96390.94;;;10.51;89.70
29379;BME280;16362;47.202;15.258;2022-09-20T16:03:44;96394.13;;;10.46;89.91
29379;BME280;16362;47.202;15.258;2022-09-20T16:06:12;96387.47;;;10.42;86.00
29379;BME280;16362;47.202;15.258;2022-09-20T16:08:40;96390.81;;;10.27;83.85
29379;BME280;16362;47.202;15.258;2022-09-20T16:11:09;96387.63;;;10.24;83.50
29379;BME280;16362;47.202;15.258;2022-09-20T16:13:35;96386.28;;;10.28;87.77
29379;BME280;16362;47.202;15.258;2022-09-20T16:16:04;96391.81;;;10.18;85.98
29379;BME280;16362;47.202;15.258;2022-09-20T16:18:31;96387.28;;;10.19;87.96
29379;BME280;16362;47.202;15.258;2022-09-20T16:21:18;96396.97;;;10.11;85.79
29379;BME280;16362;47.202;15.258;2022-09-20T16:23:53;96393.50;;;10.03;83.88
29379;BME280;16362;47.202;15.258;2022-09-20T16:26:21;96402.50;;;10.02;88.48
29379;BME280;16362;47.202;15.258;2022-09-20T16:28:49;96403.84;;;9.98;89.91
29379;BME280;16362;47.202;15.258;2022-09-20T16:34:01;96401.66;;;9.85;91.58
29379;BME280;16362;47.202;15.258;2022-09-20T16:36:30;96408.31;;;9.81;92.17
29379;BME280;16362;47.202;15.258;2022-09-20T16:38:56;96402.16;;;9.72;91.85
29379;BME280;16362;47.202;15.258;2022-09-20T16:41:25;96413.97;;;9.61;92.52
29379;BME280;16362;47.202;15.258;2022-09-20T16:43:52;96406.16;;;9.51;92.34
29379;BME280;16362;47.202;15.258;2022-09-20T16:46:23;96407.63;;;9.46;93.12
29379;BME280;16362;47.202;15.258;2022-09-20T16:48:53;96419.75;;;9.40;92.85
29379;BME280;16362;47.202;15.258;2022-09-20T16:51:20;96422.25;;;9.33;92.79
29379;BME280;16362;47.202;15.258;2022-09-20T16:53:53;96418.56;;;9.26;93.25
29379;BME280;16362;47.202;15.258;2022-09-20T16:56:23;96421.38;;;9.16;92.79
29379;BME280;16362;47.202;15.258;2022-09-20T16:58:51;96432.66;;;9.10;93.46
29379;BME280;16362;47.202;15.258;2022-09-20T17:01:18;96428.78;;;8.96;93.36
29379;BME280;16362;47.202;15.258;2022-09-20T17:03:45;96426.41;;;8.85;94.82
29379;BME280;16362;47.202;15.258;2022-09-20T17:06:14;96444.16;;;8.76;95.98
29379;BME280;16362;47.202;15.258;2022-09-20T17:08:42;96446.94;;;8.66;96.00
29379;BME280;16362;47.202;15.258;2022-09-20T17:11:15;96450.41;;;8.58;95.47
29379;BME280;16362;47.202;15.258;2022-09-20T17:13:44;96454.00;;;8.49;96.14
29379;BME280;16362;47.202;15.258;2022-09-20T17:16:16;96452.94;;;8.42;96.46
29379;BME280;16362;47.202;15.258;2022-09-20T17:18:43;96458.56;;;8.39;96.69
29379;BME280;16362;47.202;15.258;2022-09-20T17:21:13;96463.78;;;8.31;97.17
29379;BME280;16362;47.202;15.258;2022-09-20T17:23:41;96467.69;;;8.18;97.25
29379;BME280;16362;47.202;15.258;2022-09-20T17:26:27;96467.47;;;8.12;98.42
29379;BME280;16362;47.202;15.258;2022-09-20T17:28:56;96471.69;;;7.96;98.45
29379;BME280;16362;47.202;15.258;2022-09-20T17:31:30;96478.06;;;7.85;98.73
29379;BME280;16362;47.202;15.258;2022-09-20T17:34:00;96477.53;;;7.82;99.96
29379;BME280;16362;47.202;15.258;2022-09-20T17:36:30;96490.06;;;7.71;100.00
29379;BME280;16362;47.202;15.258;2022-09-20T17:38:59;96492.88;;;7.70;100.00
29379;BME280;16362;47.202;15.258;2022-09-20T17:41:30;96494.13;;;7.66;100.00
29379;BME280;16362;47.202;15.258;2022-09-20T17:43:59;96488.06;;;7.55;100.00
29379;BME280;16362;47.202;15.258;2022-09-20T17:46:28;96489.88;;;7.55;100.00
29379;BME280;16362;47.202;15.258;2022-09-20T17:49:07;96493.69;;;7.52;100.00
29379;BME280;16362;47.202;15.258;2022-09-20T17:51:37;96499.28;;;7.49;100.00
29379;BME280;16362;47.202;15.258;2022-09-20T17:54:04;96495.56;;;7.42;100.00
29379;BME280;16362;47.202;15.258;2022-09-20T17:56:32;96497.16;;;7.35;100.00
29379;BME280;16362;47.202;15.258;2022-09-20T17:59:00;96495.72;;;7.13;100.00
29379;BME280;16362;47.202;15.258;2022-09-20T18:01:28;96499.81;;;7.07;100.00
29379;BME280;16362;47.202;15.258;2022-09-20T18:03:57;96502.16;;;7.10;100.00
29379;BME280;16362;47.202;15.258;2022-09-20T18:08:58;96505.00;;;6.99;100.00
29379;BME280;16362;47.202;15.258;2022-09-20T18:11:29;96510.75;;;6.94;100.00
29379;BME280;16362;47.202;15.258;2022-09-20T18:13:58;96511.06;;;6.81;100.00
29379;BME280;16362;47.202;15.258;2022-09-20T18:16:25;96516.69;;;6.68;100.00
29379;BME280;16362;47.202;15.258;2022-09-20T18:18:52;96516.56;;;6.70;100.00
29379;BME280;16362;47.202;15.258;2022-09-20T18:21:21;96524.53;;;6.70;100.00
29379;BME280;16362;47.202;15.258;2022-09-20T18:23:49;96531.09;;;6.66;100.00
29379;BME280;16362;47.202;15.258;2022-09-20T18:26:19;96535.28;;;6.58;100.00
29379;BME280;16362;47.202;15.258;2022-09-20T18:29:05;96541.97;;;6.63;100.00
29379;BME280;16362;47.202;15.258;2022-09-20T18:31:44;96544.22;;;6.57;100.00
29379;BME280;16362;47.202;15.258;2022-09-20T18:34:12;96549.53;;;6.48;100.00
29379;BME280;16362;47.202;15.258;2022-09-20T18:36:49;96546.34;;;6.24;100.00
29379;BME280;16362;47.202;15.258;2022-09-20T18:39:22;96557.25;;;6.21;100.00
29379;BME280;16362;47.202;15.258;2022-09-20T18:41:50;96556.66;;;6.28;100.00
29379;BME280;16362;47.202;15.258;2022-09-20T18:44:19;96557.38;;;6.30;100.00
29379;BME280;16362;47.202;15.258;2022-09-20T18:46:47;96556.13;;;6.24;100.00